Alta Hill, California
Current Conditions -  °F | °C
As of 4:00 AM on Sunday 23 Nov 2014 (Local Time) from KGOO Reporting Station
Clear Clear  
Wind Chill: 36°   Ceiling: Unl
Heat Index: 41°   Visibility: 10mi
Dew Point: 32°   Wind: 7mph
Humidity: 70%   Direction: 40°NE
Pressure: 30.24"   Gusts: NA
Location:  39.2183°N, 120.924°W
Report Text: KGOO 231200Z AUTO 04006KT 10SM CLR 05/00 A3024 RMK AO1
Loading
Personal Weather Stations






























Interactive Weather Map New forecast layout! Learn more

10-Day Weather Forecast

Advertisements
Track Severe Weather on mobile